Time;durP1;ratioP1;P1;durP2;ratioP2;P2;SDS_P1;SDS_P2;PMS_P1;PMS_P2;Temp;Humidity;BMP_temperature;BMP_pressure;BME280_temperature;BME280_humidity;BME280_pressure;Samples;Min_cycle;Max_cycle;Signal;HPM_P1;HPM_P2
2021/01/21 00:01:10;;;;;;;3.67;3.37;;;9.70;24.20;;;;;;5011681;28;20438;-67
2021/01/21 00:03:36;;;;;;;2.87;2.67;;;9.80;24.60;;;;;;5011658;28;20181;-67
2021/01/21 00:06:02;;;;;;;4.07;3.47;;;9.80;25.20;;;;;;5011492;28;20220;-67
2021/01/21 00:08:28;;;;;;;4.20;3.80;;;9.80;23.80;;;;;;5011367;28;20688;-67
2021/01/21 00:10:54;;;;;;;4.00;3.60;;;9.50;24.90;;;;;;5011884;28;20408;-67
2021/01/21 00:13:19;;;;;;;4.00;3.70;;;9.60;24.70;;;;;;5011427;28;20173;-67
2021/01/21 00:15:45;;;;;;;4.10;3.80;;;9.50;24.70;;;;;;5011353;28;20282;-67
2021/01/21 00:18:11;;;;;;;4.10;3.60;;;9.60;24.80;;;;;;5011269;28;20227;-67
2021/01/21 00:20:36;;;;;;;3.90;3.40;;;9.60;25.00;;;;;;5011369;28;20420;-67
2021/01/21 00:23:02;;;;;;;5.73;5.10;;;9.50;24.80;;;;;;5011243;28;20181;-67
2021/01/21 00:25:27;;;;;;;4.87;3.60;;;9.00;25.60;;;;;;5011273;28;20675;-67
2021/01/21 00:27:53;;;;;;;4.03;3.73;;;9.00;26.00;;;;;;5011081;28;20669;-67
2021/01/21 00:30:19;;;;;;;4.60;4.23;;;8.90;26.10;;;;;;5011308;28;20166;-67
2021/01/21 00:32:45;;;;;;;3.67;3.37;;;8.70;26.40;;;;;;5011153;28;20234;-67
2021/01/21 00:35:13;;;;;;;4.13;3.63;;;8.80;26.70;;;;;;5011149;28;20491;-67
2021/01/21 00:37:38;;;;;;;4.50;3.57;;;8.90;26.80;;;;;;5011041;28;20576;-67
2021/01/21 00:40:05;;;;;;;3.97;3.67;;;9.10;26.40;;;;;;5011130;28;20436;-67
2021/01/21 00:42:31;;;;;;;3.70;3.37;;;8.90;26.20;;;;;;5011105;28;20201;-67
2021/01/21 00:44:56;;;;;;;4.43;3.87;;;8.50;27.00;;;;;;5010900;28;20411;-67
2021/01/21 00:47:22;;;;;;;4.63;4.20;;;8.70;27.20;;;;;;5010901;28;20415;-67
2021/01/21 00:49:47;;;;;;;3.97;3.67;;;9.10;27.10;;;;;;5011020;28;20660;-67
2021/01/21 00:52:13;;;;;;;3.57;3.37;;;9.20;26.50;;;;;;5011132;28;20197;-67
2021/01/21 00:54:38;;;;;;;4.60;4.20;;;9.00;26.20;;;;;;5011060;28;20176;-67
2021/01/21 00:57:04;;;;;;;4.03;3.70;;;9.00;26.30;;;;;;5010760;28;20296;-68
2021/01/21 00:59:29;;;;;;;4.50;4.10;;;8.90;26.30;;;;;;5010953;28;20188;-67
2021/01/21 01:01:55;;;;;;;5.47;4.80;;;9.10;25.90;;;;;;5011046;28;20177;-67
2021/01/21 01:04:20;;;;;;;6.87;3.93;;;9.10;25.80;;;;;;5014161;28;20184;-67
2021/01/21 01:06:46;;;;;;;6.37;3.70;;;9.00;25.40;;;;;;5014724;28;20593;-67
2021/01/21 01:09:11;;;;;;;4.33;3.93;;;8.80;25.80;;;;;;5014689;28;20686;-67
2021/01/21 01:11:37;;;;;;;5.30;3.80;;;8.80;25.60;;;;;;5014653;28;20185;-68
2021/01/21 01:14:03;;;;;;;3.90;3.60;;;8.80;25.60;;;;;;5014758;28;20565;-68
2021/01/21 01:16:28;;;;;;;3.30;3.07;;;8.80;25.90;;;;;;5014676;28;20556;-68
2021/01/21 01:18:54;;;;;;;5.43;3.40;;;8.80;26.40;;;;;;5014643;28;20177;-68
2021/01/21 01:21:19;;;;;;;4.87;3.70;;;8.70;25.70;;;;;;5014732;28;20551;-68
2021/01/21 01:23:44;;;;;;;3.03;2.73;;;8.70;25.80;;;;;;5014922;28;20193;-68
2021/01/21 01:26:10;;;;;;;3.43;3.13;;;8.60;25.70;;;;;;5014540;28;20198;-67
2021/01/21 01:28:38;;;;;;;2.97;2.77;;;8.70;25.40;;;;;;5014344;28;20209;-68
2021/01/21 01:31:03;;;;;;;3.37;3.17;;;8.70;25.20;;;;;;5014871;28;20182;-68
2021/01/21 01:33:29;;;;;;;4.73;2.73;;;8.70;25.10;;;;;;5014856;28;20915;-68
2021/01/21 01:35:54;;;;;;;2.70;2.50;;;8.80;24.70;;;;;;5014494;28;20201;-68
2021/01/21 01:38:20;;;;;;;2.37;2.03;;;8.90;24.10;;;;;;5014139;28;20184;-68
2021/01/21 01:40:45;;;;;;;2.20;2.00;;;8.90;24.60;;;;;;5014201;28;20197;-68
2021/01/21 01:43:11;;;;;;;2.10;2.00;;;9.00;23.50;;;;;;5014167;28;20181;-68
2021/01/21 01:45:37;;;;;;;2.57;2.27;;;9.00;23.60;;;;;;5014081;28;20252;-68
2021/01/21 01:48:04;;;;;;;2.40;2.10;;;9.20;23.50;;;;;;5014136;28;20180;-68
2021/01/21 01:50:30;;;;;;;4.30;2.40;;;9.30;23.50;;;;;;5014134;28;20169;-68
2021/01/21 01:52:55;;;;;;;3.63;2.33;;;9.40;23.50;;;;;;5014005;28;20416;-68
2021/01/21 01:55:22;;;;;;;2.20;2.00;;;9.40;23.30;;;;;;5013970;28;20284;-68
2021/01/21 01:57:51;;;;;;;2.07;1.97;;;9.40;23.00;;;;;;5013685;28;20200;-68
2021/01/21 02:00:17;;;;;;;2.00;1.87;;;9.50;22.90;;;;;;5013879;28;20412;-68
2021/01/21 02:02:46;;;;;;;2.27;2.13;;;9.50;22.50;;;;;;5013935;28;21113;-67
2021/01/21 02:05:12;;;;;;;1.87;1.77;;;9.50;22.40;;;;;;5013676;28;20408;-68
2021/01/21 02:07:37;;;;;;;2.50;1.87;;;9.50;22.50;;;;;;5013647;28;20478;-68
2021/01/21 02:10:04;;;;;;;2.37;2.17;;;9.60;22.40;;;;;;5013598;28;20188;-68
2021/01/21 02:13:06;;;;;;;2.27;2.17;;;9.70;22.20;;;;;;5013599;28;20173;-68
2021/01/21 02:15:53;;;;;;;1.90;1.80;;;9.70;22.60;;;;;;5012690;28;20444;-68
2021/01/21 02:18:37;;;;;;;2.07;1.97;;;9.80;22.60;;;;;;5013383;28;20413;-68
2021/01/21 02:21:18;;;;;;;2.33;2.13;;;9.70;22.30;;;;;;5013526;28;20404;-68
2021/01/21 02:24:05;;;;;;;2.43;2.10;;;9.70;22.20;;;;;;5012155;28;20451;-68
2021/01/21 02:26:42;;;;;;;1.90;1.80;;;9.70;22.40;;;;;;5013321;28;20452;-68
2021/01/21 02:29:32;;;;;;;1.87;1.77;;;9.70;22.50;;;;;;5013162;28;20763;-68
2021/01/21 02:32:06;;;;;;;2.77;1.93;;;9.70;22.70;;;;;;5010454;28;20780;-68
2021/01/21 02:34:47;;;;;;;3.80;2.70;;;9.80;22.40;;;;;;5013297;28;20407;-68
2021/01/21 02:37:18;;;;;;;1.97;1.80;;;9.80;23.00;;;;;;5013006;28;20526;-68
2021/01/21 02:39:48;;;;;;;2.13;1.93;;;9.90;22.20;;;;;;5013183;28;20408;-68
2021/01/21 02:42:14;;;;;;;2.07;1.90;;;9.90;22.10;;;;;;5013254;28;20944;-68
2021/01/21 02:44:39;;;;;;;1.90;1.80;;;9.90;22.10;;;;;;5013188;28;20413;-68
2021/01/21 02:47:05;;;;;;;2.40;2.30;;;9.90;22.00;;;;;;5012819;28;20466;-68
2021/01/21 02:49:31;;;;;;;1.80;1.70;;;9.90;22.40;;;;;;5013076;28;20169;-68
2021/01/21 02:51:59;;;;;;;4.20;1.77;;;10.00;21.50;;;;;;5012960;28;20260;-68
2021/01/21 02:54:46;;;;;;;2.00;1.90;;;9.90;22.60;;;;;;5012964;28;20931;-68
2021/01/21 02:57:26;;;;;;;1.87;1.77;;;9.80;22.60;;;;;;5012614;28;20440;-68
2021/01/21 02:59:55;;;;;;;2.17;1.97;;;9.90;22.40;;;;;;5012874;28;20408;-68
2021/01/21 03:02:24;;;;;;;2.30;2.20;;;10.00;22.20;;;;;;5012686;28;20427;-68
2021/01/21 03:04:53;;;;;;;2.40;2.20;;;10.10;21.90;;;;;;5012653;28;20420;-68
2021/01/21 03:07:21;;;;;;;2.10;2.00;;;10.00;20.60;;;;;;5012438;28;20464;-68
2021/01/21 03:09:46;;;;;;;1.80;1.70;;;10.00;21.30;;;;;;5012735;28;20752;-68
2021/01/21 03:12:24;;;;;;;1.90;1.53;;;10.00;20.20;;;;;;5012648;28;20424;-68
2021/01/21 03:14:53;;;;;;;3.67;1.73;;;10.00;20.60;;;;;;5012612;28;20523;-67
2021/01/21 03:17:22;;;;;;;1.90;1.80;;;10.10;20.90;;;;;;5012290;28;20802;-68
2021/01/21 03:19:48;;;;;;;1.97;1.87;;;10.10;20.10;;;;;;5012460;28;20420;-68
2021/01/21 03:22:13;;;;;;;1.70;1.60;;;10.20;20.10;;;;;;5012420;28;20424;-68
2021/01/21 03:24:39;;;;;;;2.70;1.73;;;10.20;20.00;;;;;;5012115;28;20262;-68
2021/01/21 03:27:05;;;;;;;1.57;1.47;;;10.20;20.00;;;;;;5011768;28;20251;-67
2021/01/21 03:29:30;;;;;;;1.70;1.60;;;10.30;19.80;;;;;;5012155;28;20496;-68
2021/01/21 03:31:56;;;;;;;1.70;1.57;;;10.30;19.70;;;;;;5012147;28;20220;-68
2021/01/21 03:34:21;;;;;;;2.50;2.30;;;10.20;20.50;;;;;;5012218;28;20227;-68
2021/01/21 03:36:47;;;;;;;1.90;1.80;;;10.10;19.80;;;;;;5012045;28;20699;-68
2021/01/21 03:39:13;;;;;;;2.30;2.10;;;10.10;19.70;;;;;;5011833;28;20185;-68
2021/01/21 03:41:38;;;;;;;2.90;2.07;;;10.10;20.10;;;;;;5012024;28;20177;-68
2021/01/21 03:44:04;;;;;;;1.97;1.87;;;10.20;20.00;;;;;;5011934;28;20733;-68
2021/01/21 03:46:30;;;;;;;2.47;1.87;;;10.10;20.10;;;;;;5011793;28;20223;-68
2021/01/21 03:48:55;;;;;;;3.70;1.67;;;10.10;20.30;;;;;;5011696;28;20507;-68
2021/01/21 03:51:21;;;;;;;2.30;1.50;;;10.10;20.20;;;;;;5011944;28;20169;-67
2021/01/21 03:53:46;;;;;;;1.60;1.50;;;10.10;20.10;;;;;;5011715;28;20181;-68
2021/01/21 03:56:12;;;;;;;2.77;2.57;;;10.00;20.20;;;;;;5011608;28;20239;-68
2021/01/21 03:58:37;;;;;;;2.33;1.90;;;10.00;21.20;;;;;;5011500;28;20173;-68
2021/01/21 04:01:03;;;;;;;4.53;2.13;;;10.10;20.50;;;;;;5011764;28;20698;-67
2021/01/21 04:03:28;;;;;;;5.80;2.10;;;10.00;20.40;;;;;;5011714;28;20173;-67
2021/01/21 04:05:54;;;;;;;2.00;1.63;;;10.00;20.20;;;;;;5011712;28;20212;-68
2021/01/21 04:08:19;;;;;;;12.00;2.60;;;10.10;20.80;;;;;;5011477;28;20277;-68
2021/01/21 04:10:45;;;;;;;2.40;1.63;;;10.10;21.00;;;;;;5011667;28;20637;-68
2021/01/21 04:13:10;;;;;;;1.50;1.40;;;10.10;20.40;;;;;;5011550;28;20544;-68
2021/01/21 04:15:36;;;;;;;2.17;2.07;;;10.10;20.90;;;;;;5011573;28;20197;-67
2021/01/21 04:18:02;;;;;;;2.30;1.57;;;10.10;20.90;;;;;;5011419;28;20183;-68
2021/01/21 04:20:27;;;;;;;1.67;1.57;;;10.20;21.30;;;;;;5011813;28;20184;-68
2021/01/21 04:22:53;;;;;;;1.73;1.63;;;10.20;20.90;;;;;;5011556;28;20174;-68
2021/01/21 04:25:18;;;;;;;3.47;2.00;;;10.20;20.40;;;;;;5011300;28;20211;-68
2021/01/21 04:27:44;;;;;;;1.60;1.50;;;10.20;20.40;;;;;;5011005;28;20181;-68
2021/01/21 04:30:10;;;;;;;1.50;1.40;;;10.20;20.30;;;;;;5011272;28;20185;-67
2021/01/21 04:32:35;;;;;;;3.43;1.30;;;10.30;20.60;;;;;;5011243;28;20196;-68
2021/01/21 04:35:01;;;;;;;1.40;1.37;;;10.30;20.60;;;;;;5011125;28;20459;-68
2021/01/21 04:37:26;;;;;;;1.70;1.60;;;10.40;20.00;;;;;;5010482;28;20223;-68
2021/01/21 04:39:52;;;;;;;11.33;2.63;;;10.40;20.30;;;;;;5011155;28;20544;-67
2021/01/21 04:42:18;;;;;;;1.93;1.83;;;10.50;20.20;;;;;;5011030;28;20178;-68
2021/01/21 04:44:43;;;;;;;2.00;1.80;;;10.50;19.70;;;;;;5011174;28;20169;-68
2021/01/21 04:47:09;;;;;;;1.43;1.30;;;10.50;19.90;;;;;;5010664;28;20201;-68
2021/01/21 04:49:40;;;;;;;1.80;1.70;;;10.50;19.80;;;;;;5011022;28;20181;-67
2021/01/21 04:52:09;;;;;;;1.60;1.50;;;10.50;20.00;;;;;;5010884;28;20427;-67
2021/01/21 04:54:43;;;;;;;1.87;1.73;;;10.60;19.80;;;;;;5010973;28;20466;-67
2021/01/21 04:57:14;;;;;;;1.60;1.50;;;10.60;20.00;;;;;;5010784;28;20439;-67
2021/01/21 04:59:41;;;;;;;1.70;1.60;;;10.60;19.50;;;;;;5011013;28;20416;-67
2021/01/21 05:02:07;;;;;;;2.37;1.63;;;10.60;20.00;;;;;;5011041;28;20937;-68
2021/01/21 05:04:36;;;;;;;1.73;1.57;;;10.70;19.90;;;;;;5010901;28;20409;-67
2021/01/21 05:07:03;;;;;;;1.73;1.63;;;10.80;20.20;;;;;;5010620;28;20452;-68
2021/01/21 05:09:28;;;;;;;1.63;1.40;;;10.80;19.80;;;;;;5010803;28;20915;-68
2021/01/21 05:11:55;;;;;;;1.70;1.60;;;10.70;19.30;;;;;;5010875;28;20423;-68
2021/01/21 05:14:20;;;;;;;1.90;1.80;;;10.70;19.60;;;;;;5010899;28;20174;-67
2021/01/21 05:16:47;;;;;;;2.00;1.90;;;10.70;19.60;;;;;;5010756;28;20443;-68
2021/01/21 05:19:15;;;;;;;2.00;1.90;;;10.70;19.80;;;;;;5010677;28;20173;-67
2021/01/21 05:21:41;;;;;;;1.80;1.70;;;10.70;20.00;;;;;;5010755;28;20412;-67
2021/01/21 05:24:14;;;;;;;2.60;1.70;;;10.80;20.40;;;;;;5010715;28;20439;-68
2021/01/21 05:26:43;;;;;;;2.50;1.80;;;10.90;19.80;;;;;;5010660;28;20529;-68
2021/01/21 05:29:12;;;;;;;6.00;1.60;;;10.80;19.10;;;;;;5010484;28;20444;-68
2021/01/21 05:31:38;;;;;;;1.60;1.50;;;10.70;19.50;;;;;;5010774;28;20412;-68
2021/01/21 05:34:11;;;;;;;2.30;1.87;;;10.80;19.30;;;;;;5010686;28;20423;-68
2021/01/21 05:36:38;;;;;;;1.70;1.60;;;10.90;19.70;;;;;;5010608;28;20385;-67
2021/01/21 05:39:07;;;;;;;2.40;1.80;;;10.80;19.20;;;;;;5010628;28;20184;-67
2021/01/21 05:41:37;;;;;;;1.77;1.67;;;10.90;19.40;;;;;;5010632;28;20416;-67
2021/01/21 05:44:04;;;;;;;2.13;1.93;;;10.80;19.30;;;;;;5010754;28;20419;-66
2021/01/21 05:46:31;;;;;;;1.77;1.67;;;10.80;19.40;;;;;;5010531;28;20448;-66
2021/01/21 05:48:58;;;;;;;1.70;1.60;;;10.90;19.20;;;;;;5010490;28;20408;-68
2021/01/21 05:51:24;;;;;;;2.03;1.77;;;10.90;19.20;;;;;;5013605;28;20408;-67
2021/01/21 05:53:53;;;;;;;2.27;2.07;;;11.00;19.40;;;;;;5014004;28;20407;-67
2021/01/21 05:56:21;;;;;;;1.50;1.40;;;10.90;20.20;;;;;;5013905;28;20489;-66
2021/01/21 05:58:50;;;;;;;2.00;1.60;;;11.00;19.30;;;;;;5013641;28;20415;-67
2021/01/21 06:01:15;;;;;;;1.73;1.63;;;11.00;19.40;;;;;;5013834;28;20796;-67
2021/01/21 06:03:41;;;;;;;2.27;2.00;;;11.10;19.20;;;;;;5013769;28;20420;-67
2021/01/21 06:06:07;;;;;;;5.13;1.80;;;11.10;19.10;;;;;;5013537;28;20568;-67
2021/01/21 06:08:40;;;;;;;1.63;1.40;;;11.10;19.80;;;;;;5013488;28;20161;-67
2021/01/21 06:11:10;;;;;;;4.00;1.87;;;11.10;19.20;;;;;;5013645;28;20408;-67
2021/01/21 06:13:41;;;;;;;3.10;1.70;;;11.20;19.50;;;;;;5013621;28;20408;-67
2021/01/21 06:16:08;;;;;;;1.43;1.30;;;11.30;18.80;;;;;;5013381;28;20471;-66
2021/01/21 06:18:34;;;;;;;2.27;1.50;;;11.20;19.00;;;;;;5013063;28;20404;-67
2021/01/21 06:21:01;;;;;;;1.70;1.60;;;11.20;18.90;;;;;;5012809;28;20419;-66
2021/01/21 06:23:33;;;;;;;3.57;1.33;;;11.30;18.60;;;;;;5012800;28;20664;-66
2021/01/21 06:25:59;;;;;;;2.17;1.77;;;11.20;18.50;;;;;;5012270;28;20487;-67
2021/01/21 06:28:27;;;;;;;2.00;1.53;;;11.20;18.50;;;;;;5012898;28;20405;-67
2021/01/21 06:30:56;;;;;;;2.17;1.70;;;11.20;18.70;;;;;;5013067;28;20436;-67
2021/01/21 06:33:39;;;;;;;12.70;4.63;;;11.10;18.60;;;;;;5013073;28;20428;-67
2021/01/21 06:36:08;;;;;;;2.30;1.57;;;11.30;19.10;;;;;;5012927;28;20503;-67
2021/01/21 06:38:38;;;;;;;1.53;1.43;;;11.20;18.40;;;;;;5012885;28;20404;-67
2021/01/21 06:41:10;;;;;;;2.00;1.90;;;11.30;19.20;;;;;;5012893;28;20400;-67
2021/01/21 06:43:38;;;;;;;1.80;1.70;;;11.20;18.30;;;;;;5012704;28;20444;-67
2021/01/21 06:46:04;;;;;;;1.83;1.73;;;11.30;19.20;;;;;;5012513;28;20922;-66
2021/01/21 06:48:30;;;;;;;2.13;1.93;;;11.30;18.80;;;;;;5012518;28;20404;-66
2021/01/21 06:50:56;;;;;;;2.40;1.90;;;11.30;19.20;;;;;;5012842;28;20700;-69
2021/01/21 06:53:24;;;;;;;5.60;4.97;;;11.30;19.30;;;;;;5012798;28;20412;-66
2021/01/21 06:55:50;;;;;;;6.70;4.20;;;13.00;29.70;;;;;;5012704;28;20516;-66
2021/01/21 06:58:48;;;;;;;8.30;5.13;;;12.70;25.40;;;;;;5012638;28;20494;-67
2021/01/21 07:01:36;;;;;;;3.60;2.67;;;13.60;19.30;;;;;;5012231;28;20410;-67
2021/01/21 07:04:04;;;;;;;3.60;3.30;;;14.20;21.90;;;;;;5012577;28;21162;-66
2021/01/21 07:06:52;;;;;;;6.87;4.20;;;13.70;19.50;;;;;;5012226;28;20471;-67
2021/01/21 07:09:20;;;;;;;3.67;1.87;;;14.00;21.30;;;;;;5012352;28;20447;-66
2021/01/21 07:11:47;;;;;;;1.53;1.43;;;12.70;18.80;;;;;;5012471;28;20408;-67
2021/01/21 07:14:17;;;;;;;3.67;2.20;;;12.00;20.40;;;;;;5012326;28;20404;-67
2021/01/21 07:16:49;;;;;;;1.83;1.70;;;11.80;21.70;;;;;;5012221;28;20402;-68
2021/01/21 07:19:15;;;;;;;2.63;1.73;;;11.60;22.60;;;;;;5016552;28;20446;-66
2021/01/21 07:21:51;;;;;;;2.50;1.70;;;11.40;23.40;;;;;;5031466;28;20776;-65
2021/01/21 07:24:21;;;;;;;5.40;1.87;;;11.30;24.10;;;;;;5031662;28;20481;-65
2021/01/21 07:26:50;;;;;;;2.20;2.10;;;11.20;25.20;;;;;;5031446;28;20465;-66
2021/01/21 07:29:20;;;;;;;1.50;1.40;;;11.20;26.10;;;;;;5031911;28;20408;-66
2021/01/21 07:31:59;;;;;;;1.77;1.67;;;11.20;26.40;;;;;;5031768;28;20435;-66
2021/01/21 07:34:26;;;;;;;1.90;1.80;;;11.30;26.50;;;;;;5031821;28;20983;-67
2021/01/21 07:37:15;;;;;;;3.50;1.73;;;11.20;26.60;;;;;;5031524;28;20641;-65
2021/01/21 07:40:09;;;;;;;3.93;1.90;;;11.20;27.20;;;;;;5031761;28;20407;-66
2021/01/21 07:42:37;;;;;;;1.70;1.60;;;11.30;27.10;;;;;;5031383;28;20418;-67
2021/01/21 07:45:19;;;;;;;2.13;1.93;;;11.30;27.20;;;;;;5031517;28;20411;-65
2021/01/21 07:47:47;;;;;;;3.47;2.20;;;11.10;27.50;;;;;;5031131;28;20464;-67
2021/01/21 07:50:18;;;;;;;2.10;1.77;;;11.30;28.30;;;;;;5030912;28;20824;-66
2021/01/21 07:52:49;;;;;;;2.40;1.70;;;11.30;27.90;;;;;;5031153;28;20777;-67
2021/01/21 07:55:23;;;;;;;2.50;1.40;;;11.20;27.70;;;;;;5031134;28;20408;-68
2021/01/21 07:57:49;;;;;;;7.00;2.23;;;11.20;27.70;;;;;;5030900;28;20511;-67
2021/01/21 08:00:15;;;;;;;8.30;2.40;;;11.20;27.70;;;;;;5030973;28;20427;-66
2021/01/21 08:02:46;;;;;;;9.60;1.83;;;11.30;27.80;;;;;;5030973;28;20208;-67
2021/01/21 08:05:30;;;;;;;1.77;1.33;;;11.30;27.80;;;;;;5030913;28;20414;-66
2021/01/21 08:07:56;;;;;;;1.93;1.70;;;11.20;27.80;;;;;;5030702;28;20423;-66
2021/01/21 08:10:23;;;;;;;1.50;1.40;;;11.30;27.70;;;;;;5030912;28;20461;-66
2021/01/21 08:13:00;;;;;;;1.80;1.23;;;11.40;27.80;;;;;;5030156;28;20491;-67
2021/01/21 08:15:28;;;;;;;2.10;1.50;;;11.40;28.00;;;;;;5030740;28;20419;-66
2021/01/21 08:17:55;;;;;;;1.57;1.37;;;11.40;27.50;;;;;;5030719;28;20422;-68
2021/01/21 08:20:29;;;;;;;2.40;1.57;;;11.50;27.60;;;;;;5030712;28;20400;-66
2021/01/21 08:23:01;;;;;;;2.97;1.63;;;11.50;27.50;;;;;;5030603;28;20783;-66
2021/01/21 08:25:28;;;;;;;1.73;1.63;;;11.50;27.70;;;;;;5030592;28;20442;-68
2021/01/21 08:27:54;;;;;;;1.57;1.40;;;11.50;27.40;;;;;;5030573;28;20840;-67
2021/01/21 08:30:27;;;;;;;3.13;1.57;;;11.50;27.90;;;;;;5030729;28;20407;-67
2021/01/21 08:33:11;;;;;;;3.23;1.77;;;11.50;27.40;;;;;;5030600;28;20422;-66
2021/01/21 08:35:49;;;;;;;2.00;1.90;;;11.60;27.50;;;;;;5030502;28;20465;-65
2021/01/21 08:38:18;;;;;;;1.63;1.60;;;11.60;27.80;;;;;;5030565;28;20415;-65
2021/01/21 08:40:45;;;;;;;1.73;1.43;;;11.60;28.40;;;;;;5030619;28;20472;-65
2021/01/21 08:43:11;;;;;;;2.07;1.90;;;11.60;27.80;;;;;;5030559;28;20566;-68
2021/01/21 08:45:37;;;;;;;2.20;1.93;;;11.60;28.00;;;;;;5030365;28;20522;-66
2021/01/21 08:48:03;;;;;;;1.60;1.50;;;11.70;28.00;;;;;;5030095;28;20431;-66
2021/01/21 08:50:39;;;;;;;1.70;1.60;;;11.80;28.20;;;;;;5030402;28;20749;-67
2021/01/21 08:53:07;;;;;;;4.10;1.90;;;11.90;28.20;;;;;;5030201;28;20403;-66
2021/01/21 08:55:46;;;;;;;3.90;1.67;;;11.80;28.50;;;;;;5030378;28;21187;-67
2021/01/21 08:58:14;;;;;;;1.77;1.67;;;11.90;28.10;;;;;;5030163;28;20425;-66
2021/01/21 09:01:04;;;;;;;2.27;1.50;;;11.90;27.90;;;;;;5030172;28;20503;-66
2021/01/21 09:03:48;;;;;;;2.37;2.10;;;11.80;28.10;;;;;;5030083;28;20450;-66
2021/01/21 09:06:18;;;;;;;2.30;2.20;;;12.00;28.20;;;;;;5030223;28;20962;-67
2021/01/21 09:08:58;;;;;;;2.10;1.73;;;11.70;28.30;;;;;;5030041;28;20445;-67
2021/01/21 09:11:34;;;;;;;1.40;1.40;;;11.70;28.40;;;;;;5030121;28;20502;-67
2021/01/21 09:14:01;;;;;;;1.80;1.70;;;11.70;28.30;;;;;;5030480;28;20399;-68
2021/01/21 09:16:43;;;;;;;1.83;1.40;;;11.60;28.30;;;;;;5023519;28;20498;-67
2021/01/21 09:19:09;;;;;;;1.80;1.70;;;11.70;28.10;;;;;;5010140;28;20415;-67
2021/01/21 09:21:35;;;;;;;1.90;1.80;;;11.70;28.20;;;;;;5010377;28;20854;-66
2021/01/21 09:24:10;;;;;;;5.87;1.50;;;11.70;28.20;;;;;;5011157;28;20515;-66
2021/01/21 09:26:36;;;;;;;1.73;1.60;;;11.80;28.30;;;;;;5014162;28;20254;-66
2021/01/21 09:29:02;;;;;;;1.67;1.57;;;11.80;28.20;;;;;;5014028;28;20416;-66
2021/01/21 09:31:30;;;;;;;1.70;1.60;;;11.90;28.30;;;;;;5014118;28;20165;-67
2021/01/21 09:33:56;;;;;;;1.53;1.53;;;11.90;28.20;;;;;;5014016;28;20420;-67
2021/01/21 09:36:29;;;;;;;2.30;1.83;;;11.90;28.00;;;;;;5014006;28;20436;-67
2021/01/21 09:38:56;;;;;;;2.20;1.40;;;12.00;28.40;;;;;;5013712;28;20416;-66
2021/01/21 09:41:23;;;;;;;3.27;2.10;;;11.90;28.20;;;;;;5013903;28;20466;-67
2021/01/21 09:43:49;;;;;;;5.00;4.67;;;12.00;28.20;;;;;;5014162;28;20408;-67
2021/01/21 09:46:14;;;;;;;1.87;1.77;;;12.00;28.30;;;;;;5013776;28;20510;-66
2021/01/21 09:48:40;;;;;;;2.00;1.90;;;12.00;28.20;;;;;;5020732;28;20719;-66
2021/01/21 09:51:06;;;;;;;1.80;1.70;;;12.20;28.50;;;;;;5033856;28;20648;-71
2021/01/21 09:53:32;;;;;;;2.07;1.97;;;12.30;28.50;;;;;;5033578;28;20419;-67
2021/01/21 09:55:57;;;;;;;1.60;1.57;;;12.50;28.10;;;;;;5033392;28;20728;-67
2021/01/21 09:58:24;;;;;;;2.70;2.10;;;12.40;27.90;;;;;;5033213;28;20522;-67
2021/01/21 10:00:51;;;;;;;1.60;1.50;;;12.30;28.20;;;;;;5033285;28;20172;-65
2021/01/21 10:03:17;;;;;;;2.80;1.83;;;12.30;28.20;;;;;;5033195;28;20407;-68
2021/01/21 10:05:43;;;;;;;1.70;1.60;;;12.50;28.30;;;;;;5033061;28;20494;-67
2021/01/21 10:08:09;;;;;;;1.80;1.70;;;12.50;28.10;;;;;;5032916;28;20488;-66
2021/01/21 10:10:34;;;;;;;3.33;2.57;;;12.70;28.10;;;;;;5033244;28;20884;-66
2021/01/21 10:13:00;;;;;;;4.23;1.63;;;12.50;28.10;;;;;;5033165;28;20439;-66
2021/01/21 10:15:26;;;;;;;2.40;1.93;;;12.50;28.20;;;;;;5032832;28;20189;-67
2021/01/21 10:17:51;;;;;;;7.57;1.77;;;12.60;28.40;;;;;;5032797;28;20184;-66
2021/01/21 10:20:17;;;;;;;1.53;1.43;;;12.50;28.10;;;;;;5032805;28;20640;-66
2021/01/21 10:22:42;;;;;;;1.50;1.40;;;12.50;28.50;;;;;;5032632;28;20644;-65
2021/01/21 10:25:08;;;;;;;1.57;1.57;;;12.50;28.50;;;;;;5032753;28;20175;-66
2021/01/21 10:27:34;;;;;;;1.90;1.70;;;12.70;28.30;;;;;;5032544;28;20291;-68
2021/01/21 10:29:59;;;;;;;2.80;2.60;;;12.70;28.10;;;;;;5032703;28;20522;-66
2021/01/21 10:32:25;;;;;;;2.30;2.07;;;12.80;28.10;;;;;;5032726;28;20911;-67
2021/01/21 10:34:50;;;;;;;2.63;1.90;;;13.00;27.90;;;;;;5032905;28;20176;-67
2021/01/21 10:37:16;;;;;;;1.50;1.50;;;13.10;27.70;;;;;;5031882;28;20215;-67
2021/01/21 10:39:42;;;;;;;1.80;1.70;;;13.00;27.90;;;;;;5032739;28;20234;-66
2021/01/21 10:42:07;;;;;;;2.17;1.43;;;13.10;28.40;;;;;;5032605;28;20180;-66
2021/01/21 10:44:33;;;;;;;2.23;1.63;;;13.20;27.80;;;;;;5032561;28;20307;-67
2021/01/21 10:46:58;;;;;;;1.90;1.77;;;13.20;28.30;;;;;;5032090;28;20219;-67
2021/01/21 10:49:23;;;;;;;2.30;1.70;;;13.30;28.00;;;;;;5032382;28;20585;-67
2021/01/21 10:51:49;;;;;;;2.23;1.80;;;13.20;27.70;;;;;;5032522;28;20196;-66
2021/01/21 10:54:14;;;;;;;2.80;1.73;;;13.10;27.90;;;;;;5032455;28;20191;-66
2021/01/21 10:56:40;;;;;;;1.43;1.33;;;13.30;28.60;;;;;;5031994;28;20197;-68
2021/01/21 10:59:06;;;;;;;2.20;2.10;;;13.00;29.00;;;;;;5031996;28;20195;-66
2021/01/21 11:01:33;;;;;;;2.27;1.70;;;13.10;29.50;;;;;;5031805;28;20181;-68
2021/01/21 11:03:58;;;;;;;1.97;1.87;;;13.10;28.90;;;;;;5031888;28;20957;-67
2021/01/21 11:06:24;;;;;;;1.93;1.83;;;13.20;29.20;;;;;;5031926;28;20594;-67
2021/01/21 11:08:50;;;;;;;2.90;1.77;;;13.20;29.10;;;;;;5031762;28;20191;-68
2021/01/21 11:11:15;;;;;;;1.87;1.77;;;13.20;29.20;;;;;;5032042;28;20183;-67
2021/01/21 11:13:41;;;;;;;1.60;1.50;;;13.30;29.10;;;;;;5031749;28;20589;-67
2021/01/21 11:16:07;;;;;;;1.63;1.53;;;13.20;29.00;;;;;;5031781;28;20690;-67
2021/01/21 11:18:33;;;;;;;1.73;1.63;;;13.20;29.60;;;;;;5031645;28;20192;-67
2021/01/21 11:20:58;;;;;;;1.80;1.50;;;13.30;29.70;;;;;;5016872;28;20432;-67
2021/01/21 11:23:24;;;;;;;2.90;1.50;;;13.20;29.30;;;;;;5012075;28;20189;-66
2021/01/21 11:25:50;;;;;;;2.10;1.67;;;13.20;29.50;;;;;;5012068;28;20604;-66
2021/01/21 11:28:20;;;;;;;1.43;1.33;;;13.20;29.30;;;;;;5012058;28;20544;-67
2021/01/21 11:30:49;;;;;;;3.33;1.70;;;13.20;29.40;;;;;;5012240;28;20864;-66
2021/01/21 11:33:15;;;;;;;2.20;2.00;;;13.30;29.40;;;;;;5012212;28;20404;-68
2021/01/21 11:35:41;;;;;;;2.40;1.80;;;13.40;29.30;;;;;;5011801;28;20502;-69
2021/01/21 11:38:07;;;;;;;1.80;1.70;;;13.50;29.20;;;;;;5011831;28;20443;-68
2021/01/21 11:40:32;;;;;;;1.87;1.50;;;13.50;28.80;;;;;;5011863;28;20541;-66
2021/01/21 11:42:58;;;;;;;2.47;1.50;;;13.40;29.20;;;;;;5011576;28;20177;-67
2021/01/21 11:45:23;;;;;;;2.90;2.70;;;13.50;29.00;;;;;;5011530;28;20189;-66
2021/01/21 11:47:49;;;;;;;3.30;2.17;;;13.50;28.60;;;;;;5011395;28;20177;-67
2021/01/21 11:50:16;;;;;;;2.03;1.83;;;13.50;29.10;;;;;;5011528;28;20173;-70
2021/01/21 11:52:43;;;;;;;4.80;2.47;;;13.50;28.60;;;;;;5011524;28;20640;-67
2021/01/21 11:55:10;;;;;;;1.70;1.60;;;13.30;28.70;;;;;;5011435;28;20408;-67
2021/01/21 11:57:37;;;;;;;9.03;2.60;;;13.30;28.70;;;;;;5011141;28;20537;-68
2021/01/21 12:00:07;;;;;;;4.97;2.40;;;13.40;28.60;;;;;;5011468;28;20412;-68
2021/01/21 12:02:33;;;;;;;2.43;1.80;;;13.40;28.70;;;;;;5011358;28;20412;-68
2021/01/21 12:04:58;;;;;;;7.00;2.20;;;13.30;28.50;;;;;;5011270;28;20759;-66
2021/01/21 12:07:24;;;;;;;1.90;1.80;;;13.30;28.30;;;;;;5011157;28;20201;-66
2021/01/21 12:09:49;;;;;;;2.03;1.60;;;13.30;28.10;;;;;;5011305;28;20176;-68
2021/01/21 12:12:15;;;;;;;3.33;2.00;;;13.10;28.30;;;;;;5020663;28;20188;-67
2021/01/21 12:14:40;;;;;;;3.00;1.70;;;13.10;28.30;;;;;;5030883;28;20240;-67
2021/01/21 12:17:06;;;;;;;8.10;2.73;;;13.00;28.20;;;;;;5029491;28;20250;-65
2021/01/21 12:19:32;;;;;;;7.70;2.40;;;13.10;28.60;;;;;;5031128;28;20272;-66
2021/01/21 12:21:58;;;;;;;2.03;1.93;;;13.30;28.20;;;;;;5031025;28;20586;-65
2021/01/21 12:24:23;;;;;;;3.53;2.40;;;13.10;27.90;;;;;;5030572;28;20478;-66
2021/01/21 12:26:49;;;;;;;1.87;1.77;;;13.10;28.10;;;;;;5030581;28;20695;-66
2021/01/21 12:29:15;;;;;;;1.90;1.80;;;13.20;28.30;;;;;;5030595;28;20422;-66
2021/01/21 12:31:40;;;;;;;5.70;2.50;;;13.10;28.10;;;;;;5030920;28;20172;-66
2021/01/21 12:34:06;;;;;;;2.00;1.70;;;13.20;28.40;;;;;;5031022;28;20173;-65
2021/01/21 12:36:32;;;;;;;6.70;2.00;;;13.20;28.70;;;;;;5030586;28;20188;-65
2021/01/21 12:38:59;;;;;;;2.60;2.03;;;13.20;28.30;;;;;;5030576;28;20314;-65
2021/01/21 12:41:25;;;;;;;1.40;1.40;;;13.20;28.30;;;;;;5030486;28;20432;-66
2021/01/21 12:43:51;;;;;;;1.90;1.37;;;13.30;28.40;;;;;;5030543;28;20419;-66
2021/01/21 12:46:16;;;;;;;2.50;2.03;;;13.30;28.30;;;;;;5030371;28;20516;-65
2021/01/21 12:48:42;;;;;;;3.77;3.47;;;13.30;29.00;;;;;;5029113;28;20543;-66
2021/01/21 12:51:07;;;;;;;4.57;3.63;;;13.10;28.50;;;;;;5030298;28;20255;-65
2021/01/21 12:53:33;;;;;;;1.90;1.80;;;13.10;28.70;;;;;;5030479;28;20537;-66